sensor_id;sensor_type;location;lat;lon;timestamp;pressure;altitude;pressure_sealevel;temperature;humidity
7264;BME280;3673;52.480;13.348;2023-02-14T00:00:28;103345.47;;;12.04;48.12
7264;BME280;3673;52.480;13.348;2023-02-14T00:02:55;103348.97;;;12.03;48.33
7264;BME280;3673;52.480;13.348;2023-02-14T00:05:22;103345.13;;;11.94;48.29
7264;BME280;3673;52.480;13.348;2023-02-14T00:07:49;103343.72;;;12.03;47.97
7264;BME280;3673;52.480;13.348;2023-02-14T00:10:16;103339.09;;;11.96;48.70
7264;BME280;3673;52.480;13.348;2023-02-14T00:12:43;103339.03;;;11.95;48.27
7264;BME280;3673;52.480;13.348;2023-02-14T00:15:10;103333.94;;;11.74;48.83
7264;BME280;3673;52.480;13.348;2023-02-14T00:17:50;103342.31;;;11.65;48.62
7264;BME280;3673;52.480;13.348;2023-02-14T00:20:17;103333.44;;;11.84;48.80
7264;BME280;3673;52.480;13.348;2023-02-14T00:22:44;103333.16;;;11.76;48.72
7264;BME280;3673;52.480;13.348;2023-02-14T00:25:11;103335.78;;;11.76;48.70
7264;BME280;3673;52.480;13.348;2023-02-14T00:27:38;103338.16;;;11.94;48.39
7264;BME280;3673;52.480;13.348;2023-02-14T00:30:07;103341.75;;;11.98;47.96
7264;BME280;3673;52.480;13.348;2023-02-14T00:32:36;103345.03;;;11.91;48.62
7264;BME280;3673;52.480;13.348;2023-02-14T00:35:06;103335.91;;;11.81;48.66
7264;BME280;3673;52.480;13.348;2023-02-14T00:37:33;103325.13;;;11.97;48.53
7264;BME280;3673;52.480;13.348;2023-02-14T00:40:00;103332.78;;;11.91;48.52
7264;BME280;3673;52.480;13.348;2023-02-14T00:42:27;103331.00;;;11.90;48.33
7264;BME280;3673;52.480;13.348;2023-02-14T00:44:54;103337.38;;;11.97;48.05
7264;BME280;3673;52.480;13.348;2023-02-14T00:47:20;103338.88;;;11.90;48.38
7264;BME280;3673;52.480;13.348;2023-02-14T00:49:47;103343.94;;;11.85;48.23
7264;BME280;3673;52.480;13.348;2023-02-14T00:52:15;103338.53;;;11.81;48.70
7264;BME280;3673;52.480;13.348;2023-02-14T00:54:42;103338.28;;;11.99;47.87
7264;BME280;3673;52.480;13.348;2023-02-14T00:57:09;103337.56;;;11.77;47.95
7264;BME280;3673;52.480;13.348;2023-02-14T00:59:36;103325.38;;;11.79;48.26
7264;BME280;3673;52.480;13.348;2023-02-14T01:02:03;103323.66;;;11.80;48.25
7264;BME280;3673;52.480;13.348;2023-02-14T01:04:29;103334.41;;;11.87;48.32
7264;BME280;3673;52.480;13.348;2023-02-14T01:06:56;103333.84;;;11.96;47.86
7264;BME280;3673;52.480;13.348;2023-02-14T01:09:24;103324.66;;;11.83;48.17
7264;BME280;3673;52.480;13.348;2023-02-14T01:11:51;103320.31;;;11.84;47.97
7264;BME280;3673;52.480;13.348;2023-02-14T01:14:18;103319.91;;;11.97;47.97
7264;BME280;3673;52.480;13.348;2023-02-14T01:16:45;103311.25;;;11.76;48.25
7264;BME280;3673;52.480;13.348;2023-02-14T01:19:12;103317.59;;;11.59;48.37
7264;BME280;3673;52.480;13.348;2023-02-14T01:21:39;103317.28;;;11.50;48.54
7264;BME280;3673;52.480;13.348;2023-02-14T01:24:07;103308.47;;;11.71;48.10
7264;BME280;3673;52.480;13.348;2023-02-14T01:26:35;103309.00;;;11.63;48.68
7264;BME280;3673;52.480;13.348;2023-02-14T01:29:03;103310.00;;;11.66;48.49
7264;BME280;3673;52.480;13.348;2023-02-14T01:31:32;103303.81;;;11.88;47.69
7264;BME280;3673;52.480;13.348;2023-02-14T01:34:00;103304.72;;;11.88;47.92
7264;BME280;3673;52.480;13.348;2023-02-14T01:36:29;103305.72;;;11.92;47.90
7264;BME280;3673;52.480;13.348;2023-02-14T01:38:59;103300.84;;;11.77;47.64
7264;BME280;3673;52.480;13.348;2023-02-14T01:41:29;103294.84;;;11.81;47.92
7264;BME280;3673;52.480;13.348;2023-02-14T01:44:01;103288.59;;;11.78;47.99
7264;BME280;3673;52.480;13.348;2023-02-14T01:46:31;103289.13;;;11.93;48.03
7264;BME280;3673;52.480;13.348;2023-02-14T01:49:02;103293.75;;;12.00;47.64
7264;BME280;3673;52.480;13.348;2023-02-14T01:51:31;103295.75;;;12.07;47.43
7264;BME280;3673;52.480;13.348;2023-02-14T01:54:00;103290.25;;;12.00;47.50
7264;BME280;3673;52.480;13.348;2023-02-14T01:56:33;103290.84;;;11.44;48.54
7264;BME280;3673;52.480;13.348;2023-02-14T01:59:06;103294.28;;;11.66;48.38
7264;BME280;3673;52.480;13.348;2023-02-14T02:01:34;103293.38;;;11.66;47.89
7264;BME280;3673;52.480;13.348;2023-02-14T02:04:06;103297.44;;;11.80;48.17
7264;BME280;3673;52.480;13.348;2023-02-14T02:06:38;103283.31;;;11.76;48.40
7264;BME280;3673;52.480;13.348;2023-02-14T02:09:12;103281.63;;;11.78;48.16
7264;BME280;3673;52.480;13.348;2023-02-14T02:11:40;103286.03;;;11.79;48.02
7264;BME280;3673;52.480;13.348;2023-02-14T02:14:13;103286.41;;;11.90;47.98
7264;BME280;3673;52.480;13.348;2023-02-14T02:16:58;103290.56;;;11.83;47.96
7264;BME280;3673;52.480;13.348;2023-02-14T02:23:14;103298.31;;;12.06;47.55
7264;BME280;3673;52.480;13.348;2023-02-14T02:26:18;103295.69;;;11.80;47.75
7264;BME280;3673;52.480;13.348;2023-02-14T02:32:36;103299.34;;;11.85;47.95
7264;BME280;3673;52.480;13.348;2023-02-14T02:35:23;103288.97;;;11.88;47.92
7264;BME280;3673;52.480;13.348;2023-02-14T02:38:06;103297.84;;;11.92;47.53
7264;BME280;3673;52.480;13.348;2023-02-14T02:40:46;103290.94;;;11.94;47.36
7264;BME280;3673;52.480;13.348;2023-02-14T02:43:32;103288.66;;;11.79;47.88
7264;BME280;3673;52.480;13.348;2023-02-14T02:46:06;103290.44;;;11.57;48.26
7264;BME280;3673;52.480;13.348;2023-02-14T02:48:57;103298.53;;;11.39;48.97
7264;BME280;3673;52.480;13.348;2023-02-14T02:51:34;103292.34;;;11.61;48.39
7264;BME280;3673;52.480;13.348;2023-02-14T02:54:28;103290.97;;;11.48;48.40
7264;BME280;3673;52.480;13.348;2023-02-14T02:56:58;103286.91;;;11.56;48.56
7264;BME280;3673;52.480;13.348;2023-02-14T02:59:29;103288.06;;;11.64;49.08
7264;BME280;3673;52.480;13.348;2023-02-14T03:02:06;103290.88;;;11.69;48.39
7264;BME280;3673;52.480;13.348;2023-02-14T03:04:41;103288.88;;;11.38;48.78
7264;BME280;3673;52.480;13.348;2023-02-14T03:07:30;103279.88;;;11.55;48.69
7264;BME280;3673;52.480;13.348;2023-02-14T03:10:05;103285.31;;;11.60;48.36
7264;BME280;3673;52.480;13.348;2023-02-14T03:13:29;103297.13;;;11.49;48.56
7264;BME280;3673;52.480;13.348;2023-02-14T03:16:45;103292.78;;;11.49;48.73
7264;BME280;3673;52.480;13.348;2023-02-14T03:19:34;103297.59;;;11.37;48.75
7264;BME280;3673;52.480;13.348;2023-02-14T03:22:35;103292.28;;;11.59;48.21
7264;BME280;3673;52.480;13.348;2023-02-14T03:25:09;103294.53;;;11.72;48.54
7264;BME280;3673;52.480;13.348;2023-02-14T03:27:42;103289.22;;;11.47;48.86
7264;BME280;3673;52.480;13.348;2023-02-14T03:30:19;103290.88;;;11.93;48.04
7264;BME280;3673;52.480;13.348;2023-02-14T03:32:57;103291.47;;;11.84;47.56
7264;BME280;3673;52.480;13.348;2023-02-14T03:35:31;103292.00;;;11.75;47.83
7264;BME280;3673;52.480;13.348;2023-02-14T03:38:07;103286.81;;;11.77;48.19
7264;BME280;3673;52.480;13.348;2023-02-14T03:40:40;103279.28;;;11.86;48.18
7264;BME280;3673;52.480;13.348;2023-02-14T03:43:11;103283.72;;;11.88;47.90
7264;BME280;3673;52.480;13.348;2023-02-14T03:45:44;103278.84;;;11.74;48.71
7264;BME280;3673;52.480;13.348;2023-02-14T03:48:13;103290.88;;;11.93;48.49
7264;BME280;3673;52.480;13.348;2023-02-14T03:50:45;103294.41;;;11.95;48.56
7264;BME280;3673;52.480;13.348;2023-02-14T03:53:17;103292.75;;;11.97;47.84
7264;BME280;3673;52.480;13.348;2023-02-14T03:55:53;103286.78;;;12.01;48.09
7264;BME280;3673;52.480;13.348;2023-02-14T03:58:25;103275.81;;;11.87;48.83
7264;BME280;3673;52.480;13.348;2023-02-14T04:00:59;103278.56;;;11.92;48.45
7264;BME280;3673;52.480;13.348;2023-02-14T04:03:29;103285.63;;;11.93;47.95
7264;BME280;3673;52.480;13.348;2023-02-14T04:05:58;103279.78;;;11.76;48.79
7264;BME280;3673;52.480;13.348;2023-02-14T04:08:28;103285.88;;;11.75;48.75
7264;BME280;3673;52.480;13.348;2023-02-14T04:10:58;103273.34;;;11.68;49.15
7264;BME280;3673;52.480;13.348;2023-02-14T04:13:26;103287.50;;;11.97;48.59
7264;BME280;3673;52.480;13.348;2023-02-14T04:15:53;103284.09;;;11.99;48.11
7264;BME280;3673;52.480;13.348;2023-02-14T04:18:20;103279.06;;;11.56;48.64
7264;BME280;3673;52.480;13.348;2023-02-14T04:21:04;103273.38;;;11.44;48.93
7264;BME280;3673;52.480;13.348;2023-02-14T04:23:32;103278.97;;;11.77;48.44
7264;BME280;3673;52.480;13.348;2023-02-14T04:25:59;103265.28;;;11.38;49.21
7264;BME280;3673;52.480;13.348;2023-02-14T04:28:28;103280.88;;;11.35;49.41
7264;BME280;3673;52.480;13.348;2023-02-14T04:30:55;103281.72;;;11.58;49.11
7264;BME280;3673;52.480;13.348;2023-02-14T04:33:21;103279.28;;;11.62;48.87
7264;BME280;3673;52.480;13.348;2023-02-14T04:35:48;103290.13;;;11.97;48.74
7264;BME280;3673;52.480;13.348;2023-02-14T04:38:15;103281.47;;;11.99;48.47
7264;BME280;3673;52.480;13.348;2023-02-14T04:40:43;103286.13;;;12.08;48.06
7264;BME280;3673;52.480;13.348;2023-02-14T04:43:10;103274.72;;;11.80;48.13
7264;BME280;3673;52.480;13.348;2023-02-14T04:45:36;103270.34;;;11.81;48.14
7264;BME280;3673;52.480;13.348;2023-02-14T04:48:03;103263.75;;;11.68;48.94
7264;BME280;3673;52.480;13.348;2023-02-14T04:50:30;103265.09;;;11.81;48.68
7264;BME280;3673;52.480;13.348;2023-02-14T04:52:56;103266.47;;;11.95;48.14
7264;BME280;3673;52.480;13.348;2023-02-14T04:55:23;103259.47;;;11.96;48.16
7264;BME280;3673;52.480;13.348;2023-02-14T04:57:51;103259.41;;;11.69;48.82
7264;BME280;3673;52.480;13.348;2023-02-14T05:00:19;103260.69;;;11.56;48.96
7264;BME280;3673;52.480;13.348;2023-02-14T05:02:46;103264.59;;;11.67;48.81
7264;BME280;3673;52.480;13.348;2023-02-14T05:05:13;103265.66;;;11.98;48.27
7264;BME280;3673;52.480;13.348;2023-02-14T05:07:40;103257.13;;;12.03;48.00
7264;BME280;3673;52.480;13.348;2023-02-14T05:10:12;103255.28;;;12.01;47.51
7264;BME280;3673;52.480;13.348;2023-02-14T05:12:39;103256.28;;;11.79;48.02
7264;BME280;3673;52.480;13.348;2023-02-14T05:15:08;103257.22;;;11.81;48.32
7264;BME280;3673;52.480;13.348;2023-02-14T05:17:35;103253.13;;;11.89;48.55
7264;BME280;3673;52.480;13.348;2023-02-14T05:20:03;103256.13;;;12.00;48.04
7264;BME280;3673;52.480;13.348;2023-02-14T05:22:31;103246.47;;;12.25;47.59
7264;BME280;3673;52.480;13.348;2023-02-14T05:24:57;103256.41;;;12.07;47.92
7264;BME280;3673;52.480;13.348;2023-02-14T05:27:24;103248.72;;;11.88;47.86
7264;BME280;3673;52.480;13.348;2023-02-14T05:29:51;103248.69;;;11.63;48.59
7264;BME280;3673;52.480;13.348;2023-02-14T05:32:19;103250.59;;;11.67;48.52
7264;BME280;3673;52.480;13.348;2023-02-14T05:34:46;103243.00;;;11.74;48.56
7264;BME280;3673;52.480;13.348;2023-02-14T05:37:13;103239.75;;;11.81;48.67
7264;BME280;3673;52.480;13.348;2023-02-14T05:39:39;103243.47;;;11.88;48.38
7264;BME280;3673;52.480;13.348;2023-02-14T05:42:06;103248.78;;;11.90;48.23
7264;BME280;3673;52.480;13.348;2023-02-14T05:44:33;103241.72;;;11.63;48.33
7264;BME280;3673;52.480;13.348;2023-02-14T05:47:00;103241.72;;;11.63;48.82
7264;BME280;3673;52.480;13.348;2023-02-14T05:49:28;103245.16;;;11.61;48.62
7264;BME280;3673;52.480;13.348;2023-02-14T05:51:54;103246.28;;;11.69;48.86
7264;BME280;3673;52.480;13.348;2023-02-14T05:54:21;103244.28;;;11.85;48.74
7264;BME280;3673;52.480;13.348;2023-02-14T05:56:48;103238.31;;;11.91;48.14
7264;BME280;3673;52.480;13.348;2023-02-14T05:59:15;103243.94;;;12.02;48.24
7264;BME280;3673;52.480;13.348;2023-02-14T06:01:41;103240.38;;;12.00;47.87
7264;BME280;3673;52.480;13.348;2023-02-14T06:04:08;103241.91;;;11.93;47.53
7264;BME280;3673;52.480;13.348;2023-02-14T06:06:36;103242.03;;;11.98;47.69
7264;BME280;3673;52.480;13.348;2023-02-14T06:09:03;103247.63;;;11.58;48.34
7264;BME280;3673;52.480;13.348;2023-02-14T06:11:30;103244.38;;;11.65;48.76
7264;BME280;3673;52.480;13.348;2023-02-14T06:13:56;103247.06;;;11.90;48.29
7264;BME280;3673;52.480;13.348;2023-02-14T06:16:24;103253.34;;;11.95;47.93
7264;BME280;3673;52.480;13.348;2023-02-14T06:18:50;103250.72;;;11.95;47.61
7264;BME280;3673;52.480;13.348;2023-02-14T06:21:17;103257.03;;;12.00;47.59
7264;BME280;3673;52.480;13.348;2023-02-14T06:23:45;103251.56;;;11.94;48.35
7264;BME280;3673;52.480;13.348;2023-02-14T06:26:12;103250.09;;;11.77;48.33
7264;BME280;3673;52.480;13.348;2023-02-14T06:28:39;103248.38;;;12.04;47.84
7264;BME280;3673;52.480;13.348;2023-02-14T06:31:07;103255.25;;;11.74;48.35
7264;BME280;3673;52.480;13.348;2023-02-14T06:33:34;103256.75;;;11.67;48.69
7264;BME280;3673;52.480;13.348;2023-02-14T06:36:01;103246.28;;;11.44;48.90
7264;BME280;3673;52.480;13.348;2023-02-14T06:38:27;103259.19;;;11.86;48.15
7264;BME280;3673;52.480;13.348;2023-02-14T06:41:02;103247.97;;;11.91;48.53
7264;BME280;3673;52.480;13.348;2023-02-14T06:43:29;103244.56;;;11.95;48.26
7264;BME280;3673;52.480;13.348;2023-02-14T06:45:56;103239.09;;;11.87;48.25
7264;BME280;3673;52.480;13.348;2023-02-14T06:48:22;103248.88;;;11.93;48.36
7264;BME280;3673;52.480;13.348;2023-02-14T06:50:49;103246.66;;;12.05;47.92
7264;BME280;3673;52.480;13.348;2023-02-14T06:53:17;103256.66;;;11.90;47.74
7264;BME280;3673;52.480;13.348;2023-02-14T06:55:43;103255.34;;;12.02;47.60
7264;BME280;3673;52.480;13.348;2023-02-14T06:58:12;103252.34;;;12.17;47.49
7264;BME280;3673;52.480;13.348;2023-02-14T07:00:38;103255.88;;;12.19;47.33
7264;BME280;3673;52.480;13.348;2023-02-14T07:03:06;103250.59;;;12.17;47.64
7264;BME280;3673;52.480;13.348;2023-02-14T07:05:33;103244.75;;;11.74;47.66
7264;BME280;3673;52.480;13.348;2023-02-14T07:08:01;103247.72;;;11.84;48.07
7264;BME280;3673;52.480;13.348;2023-02-14T07:10:28;103245.06;;;11.59;48.46
7264;BME280;3673;52.480;13.348;2023-02-14T07:12:54;103253.22;;;11.91;47.75
7264;BME280;3673;52.480;13.348;2023-02-14T07:15:22;103242.66;;;11.40;48.97
7264;BME280;3673;52.480;13.348;2023-02-14T07:17:49;103250.25;;;11.81;48.48
7264;BME280;3673;52.480;13.348;2023-02-14T07:20:17;103243.75;;;11.96;48.39
7264;BME280;3673;52.480;13.348;2023-02-14T07:22:44;103243.81;;;11.97;48.42
7264;BME280;3673;52.480;13.348;2023-02-14T07:25:11;103239.34;;;12.21;47.49
7264;BME280;3673;52.480;13.348;2023-02-14T07:27:38;103246.13;;;12.15;47.53
7264;BME280;3673;52.480;13.348;2023-02-14T07:30:07;103242.72;;;11.91;48.25
7264;BME280;3673;52.480;13.348;2023-02-14T07:32:36;103248.22;;;11.73;48.27
7264;BME280;3673;52.480;13.348;2023-02-14T07:35:03;103244.25;;;11.84;48.79
7264;BME280;3673;52.480;13.348;2023-02-14T07:37:31;103250.59;;;11.67;48.92
7264;BME280;3673;52.480;13.348;2023-02-14T07:39:58;103254.22;;;11.96;48.15
7264;BME280;3673;52.480;13.348;2023-02-14T07:42:25;103247.28;;;11.98;48.21
7264;BME280;3673;52.480;13.348;2023-02-14T07:44:51;103246.91;;;12.12;47.87
7264;BME280;3673;52.480;13.348;2023-02-14T07:47:18;103251.22;;;11.83;47.70
7264;BME280;3673;52.480;13.348;2023-02-14T07:49:46;103231.81;;;12.05;47.70
7264;BME280;3673;52.480;13.348;2023-02-14T07:52:13;103238.25;;;12.15;47.51
7264;BME280;3673;52.480;13.348;2023-02-14T07:54:40;103235.59;;;12.13;47.41
7264;BME280;3673;52.480;13.348;2023-02-14T07:57:06;103233.41;;;12.00;47.62
7264;BME280;3673;52.480;13.348;2023-02-14T07:59:33;103240.94;;;12.16;47.89
7264;BME280;3673;52.480;13.348;2023-02-14T08:02:00;103245.47;;;12.22;47.32
7264;BME280;3673;52.480;13.348;2023-02-14T08:04:27;103251.41;;;11.90;48.26
7264;BME280;3673;52.480;13.348;2023-02-14T08:06:55;103244.28;;;12.12;47.63
7264;BME280;3673;52.480;13.348;2023-02-14T08:09:23;103245.84;;;12.32;47.14
7264;BME280;3673;52.480;13.348;2023-02-14T08:11:51;103246.63;;;12.30;47.06
7264;BME280;3673;52.480;13.348;2023-02-14T08:14:35;103257.69;;;12.20;47.60
7264;BME280;3673;52.480;13.348;2023-02-14T08:17:03;103249.44;;;12.36;48.56
7264;BME280;3673;52.480;13.348;2023-02-14T08:19:32;103247.84;;;12.41;47.68
7264;BME280;3673;52.480;13.348;2023-02-14T08:22:00;103259.34;;;12.18;47.95
7264;BME280;3673;52.480;13.348;2023-02-14T08:24:27;103253.53;;;12.26;47.48
7264;BME280;3673;52.480;13.348;2023-02-14T08:26:54;103257.66;;;11.44;49.18
7264;BME280;3673;52.480;13.348;2023-02-14T08:29:20;103263.44;;;11.83;48.69
7264;BME280;3673;52.480;13.348;2023-02-14T08:31:47;103266.66;;;12.26;47.99
7264;BME280;3673;52.480;13.348;2023-02-14T08:34:15;103264.22;;;12.32;47.86
7264;BME280;3673;52.480;13.348;2023-02-14T08:36:42;103269.09;;;12.22;47.30
7264;BME280;3673;52.480;13.348;2023-02-14T08:39:11;103268.75;;;12.38;46.82
7264;BME280;3673;52.480;13.348;2023-02-14T08:41:38;103278.34;;;12.36;46.86
7264;BME280;3673;52.480;13.348;2023-02-14T08:44:04;103270.13;;;11.51;48.59
7264;BME280;3673;52.480;13.348;2023-02-14T08:46:31;103277.09;;;11.74;48.08
7264;BME280;3673;52.480;13.348;2023-02-14T08:48:58;103279.91;;;11.79;48.04
7264;BME280;3673;52.480;13.348;2023-02-14T08:51:25;103282.94;;;12.16;47.46
7264;BME280;3673;52.480;13.348;2023-02-14T08:53:51;103277.16;;;12.26;47.49
7264;BME280;3673;52.480;13.348;2023-02-14T08:56:21;103271.25;;;12.33;47.29
7264;BME280;3673;52.480;13.348;2023-02-14T08:58:51;103278.16;;;12.31;47.15
7264;BME280;3673;52.480;13.348;2023-02-14T09:01:19;103283.25;;;12.00;47.05
7264;BME280;3673;52.480;13.348;2023-02-14T09:03:46;103279.34;;;12.14;47.02
7264;BME280;3673;52.480;13.348;2023-02-14T09:06:15;103278.16;;;12.05;47.35
7264;BME280;3673;52.480;13.348;2023-02-14T09:08:43;103274.47;;;12.25;46.99
7264;BME280;3673;52.480;13.348;2023-02-14T09:11:13;103272.13;;;12.07;47.12
7264;BME280;3673;52.480;13.348;2023-02-14T09:13:45;103272.69;;;12.24;47.30
7264;BME280;3673;52.480;13.348;2023-02-14T09:16:13;103281.50;;;12.26;47.07
7264;BME280;3673;52.480;13.348;2023-02-14T09:18:41;103274.72;;;12.32;46.96
7264;BME280;3673;52.480;13.348;2023-02-14T09:21:12;103276.63;;;12.38;46.65
7264;BME280;3673;52.480;13.348;2023-02-14T09:23:39;103280.59;;;12.25;47.32
7264;BME280;3673;52.480;13.348;2023-02-14T09:26:09;103284.31;;;12.32;46.96
7264;BME280;3673;52.480;13.348;2023-02-14T09:28:37;103278.78;;;12.23;47.15
7264;BME280;3673;52.480;13.348;2023-02-14T09:31:11;103283.09;;;11.96;47.57
7264;BME280;3673;52.480;13.348;2023-02-14T09:33:38;103275.16;;;12.19;47.47
7264;BME280;3673;52.480;13.348;2023-02-14T09:36:23;103282.31;;;12.23;47.41
7264;BME280;3673;52.480;13.348;2023-02-14T09:38:50;103282.53;;;12.31;47.50
7264;BME280;3673;52.480;13.348;2023-02-14T09:41:45;103277.81;;;12.48;47.04
7264;BME280;3673;52.480;13.348;2023-02-14T09:44:24;103286.03;;;12.31;47.37
7264;BME280;3673;52.480;13.348;2023-02-14T09:47:00;103270.28;;;12.05;47.56
7264;BME280;3673;52.480;13.348;2023-02-14T09:49:32;103281.19;;;11.68;48.01
7264;BME280;3673;52.480;13.348;2023-02-14T09:52:02;103284.13;;;11.52;48.58
7264;BME280;3673;52.480;13.348;2023-02-14T09:54:33;103288.22;;;11.44;48.45
7264;BME280;3673;52.480;13.348;2023-02-14T09:57:05;103287.59;;;11.51;49.46
7264;BME280;3673;52.480;13.348;2023-02-14T09:59:42;103287.63;;;12.00;47.49
7264;BME280;3673;52.480;13.348;2023-02-14T10:02:34;103288.63;;;12.03;47.71
7264;BME280;3673;52.480;13.348;2023-02-14T10:05:10;103283.94;;;12.20;47.94
7264;BME280;3673;52.480;13.348;2023-02-14T10:07:55;103287.19;;;12.39;47.14
7264;BME280;3673;52.480;13.348;2023-02-14T10:10:27;103286.91;;;12.30;46.95
7264;BME280;3673;52.480;13.348;2023-02-14T10:13:03;103282.09;;;12.44;46.97
7264;BME280;3673;52.480;13.348;2023-02-14T10:15:37;103287.69;;;12.55;46.56
7264;BME280;3673;52.480;13.348;2023-02-14T10:18:11;103291.63;;;12.69;46.57
7264;BME280;3673;52.480;13.348;2023-02-14T10:20:42;103285.03;;;12.53;46.81
7264;BME280;3673;52.480;13.348;2023-02-14T10:23:25;103280.56;;;12.51;47.01
7264;BME280;3673;52.480;13.348;2023-02-14T10:25:58;103284.06;;;12.51;46.63
7264;BME280;3673;52.480;13.348;2023-02-14T10:28:32;103274.72;;;12.32;47.26
7264;BME280;3673;52.480;13.348;2023-02-14T10:31:16;103258.41;;;12.43;46.67
7264;BME280;3673;52.480;13.348;2023-02-14T10:33:51;103276.31;;;12.27;46.78
7264;BME280;3673;52.480;13.348;2023-02-14T10:36:33;103272.16;;;12.34;47.07
7264;BME280;3673;52.480;13.348;2023-02-14T10:39:11;103269.53;;;12.34;46.92
7264;BME280;3673;52.480;13.348;2023-02-14T10:41:48;103263.00;;;11.96;47.46
7264;BME280;3673;52.480;13.348;2023-02-14T10:44:35;103272.00;;;11.77;47.91
7264;BME280;3673;52.480;13.348;2023-02-14T10:47:20;103262.03;;;11.69;48.04
7264;BME280;3673;52.480;13.348;2023-02-14T10:49:59;103262.16;;;11.97;47.56
7264;BME280;3673;52.480;13.348;2023-02-14T10:52:34;103264.56;;;12.16;47.68
7264;BME280;3673;52.480;13.348;2023-02-14T10:55:12;103275.16;;;12.46;47.43
7264;BME280;3673;52.480;13.348;2023-02-14T10:57:46;103268.22;;;12.48;47.35
7264;BME280;3673;52.480;13.348;2023-02-14T11:00:20;103261.28;;;12.50;46.68
7264;BME280;3673;52.480;13.348;2023-02-14T11:02:52;103266.44;;;12.75;46.71
7264;BME280;3673;52.480;13.348;2023-02-14T11:05:27;103256.91;;;12.77;46.15
7264;BME280;3673;52.480;13.348;2023-02-14T11:07:55;103254.53;;;12.86;46.27
7264;BME280;3673;52.480;13.348;2023-02-14T11:10:26;103253.91;;;12.95;46.07
7264;BME280;3673;52.480;13.348;2023-02-14T11:12:56;103255.13;;;12.78;46.12
7264;BME280;3673;52.480;13.348;2023-02-14T11:15:25;103252.34;;;13.02;45.63
7264;BME280;3673;52.480;13.348;2023-02-14T11:18:13;103248.53;;;12.90;45.18
7264;BME280;3673;52.480;13.348;2023-02-14T11:20:59;103249.63;;;12.42;46.28
7264;BME280;3673;52.480;13.348;2023-02-14T11:23:27;103250.25;;;12.33;47.13
7264;BME280;3673;52.480;13.348;2023-02-14T11:25:57;103257.25;;;12.61;46.30
7264;BME280;3673;52.480;13.348;2023-02-14T11:28:25;103249.63;;;12.42;46.59
7264;BME280;3673;52.480;13.348;2023-02-14T11:30:53;103250.16;;;12.30;46.82
7264;BME280;3673;52.480;13.348;2023-02-14T11:33:39;103250.78;;;12.50;46.31
7264;BME280;3673;52.480;13.348;2023-02-14T11:36:12;103250.13;;;12.57;45.67
7264;BME280;3673;52.480;13.348;2023-02-14T11:38:41;103248.81;;;12.71;45.83
7264;BME280;3673;52.480;13.348;2023-02-14T11:41:13;103233.03;;;12.71;46.10
7264;BME280;3673;52.480;13.348;2023-02-14T11:43:42;103231.31;;;12.72;46.34
7264;BME280;3673;52.480;13.348;2023-02-14T11:46:14;103234.41;;;12.59;46.48
7264;BME280;3673;52.480;13.348;2023-02-14T11:48:58;103228.88;;;12.50;46.68
7264;BME280;3673;52.480;13.348;2023-02-14T11:51:30;103238.06;;;12.35;47.13
7264;BME280;3673;52.480;13.348;2023-02-14T11:54:00;103250.81;;;12.52;46.73
7264;BME280;3673;52.480;13.348;2023-02-14T11:56:46;103237.97;;;12.06;47.58
7264;BME280;3673;52.480;13.348;2023-02-14T11:59:26;103232.91;;;12.12;47.61
7264;BME280;3673;52.480;13.348;2023-02-14T12:02:02;103227.94;;;12.21;47.78
7264;BME280;3673;52.480;13.348;2023-02-14T12:04:39;103233.97;;;12.45;47.21
7264;BME280;3673;52.480;13.348;2023-02-14T12:07:18;103217.91;;;12.08;47.72
7264;BME280;3673;52.480;13.348;2023-02-14T12:09:48;103215.78;;;12.51;47.40
7264;BME280;3673;52.480;13.348;2023-02-14T12:12:36;103216.09;;;12.60;46.48
7264;BME280;3673;52.480;13.348;2023-02-14T12:15:30;103216.22;;;12.36;47.03
7264;BME280;3673;52.480;13.348;2023-02-14T12:18:47;103210.44;;;12.48;46.72
7264;BME280;3673;52.480;13.348;2023-02-14T12:21:32;103191.00;;;11.63;48.10
7264;BME280;3673;52.480;13.348;2023-02-14T12:24:16;103207.00;;;12.22;47.53
7264;BME280;3673;52.480;13.348;2023-02-14T12:26:48;103205.03;;;12.15;47.71
7264;BME280;3673;52.480;13.348;2023-02-14T12:29:21;103196.50;;;12.22;47.70
7264;BME280;3673;52.480;13.348;2023-02-14T12:31:51;103178.84;;;12.45;47.44
7264;BME280;3673;52.480;13.348;2023-02-14T12:34:18;103183.13;;;12.71;47.12
7264;BME280;3673;52.480;13.348;2023-02-14T12:37:05;103167.78;;;12.27;47.66
7264;BME280;3673;52.480;13.348;2023-02-14T12:39:52;103169.16;;;12.43;47.36
7264;BME280;3673;52.480;13.348;2023-02-14T12:42:47;103175.13;;;12.10;47.32
7264;BME280;3673;52.480;13.348;2023-02-14T12:45:20;103152.66;;;11.92;47.68
7264;BME280;3673;52.480;13.348;2023-02-14T12:48:00;103166.56;;;11.89;48.25
7264;BME280;3673;52.480;13.348;2023-02-14T12:50:38;103160.63;;;11.95;48.30
7264;BME280;3673;52.480;13.348;2023-02-14T12:53:38;103159.63;;;11.91;48.45
7264;BME280;3673;52.480;13.348;2023-02-14T12:56:24;103165.47;;;12.09;48.26
7264;BME280;3673;52.480;13.348;2023-02-14T12:59:04;103153.06;;;12.32;47.88
7264;BME280;3673;52.480;13.348;2023-02-14T13:01:47;103149.38;;;12.54;47.24
7264;BME280;3673;52.480;13.348;2023-02-14T13:04:54;103143.66;;;12.68;47.15
7264;BME280;3673;52.480;13.348;2023-02-14T13:07:38;103138.94;;;12.86;47.04
7264;BME280;3673;52.480;13.348;2023-02-14T13:10:17;103137.53;;;12.99;46.18
7264;BME280;3673;52.480;13.348;2023-02-14T13:12:56;103128.56;;;12.61;47.14
7264;BME280;3673;52.480;13.348;2023-02-14T13:15:33;103132.03;;;12.30;47.44
7264;BME280;3673;52.480;13.348;2023-02-14T13:18:07;103141.97;;;12.41;47.53
7264;BME280;3673;52.480;13.348;2023-02-14T13:20:48;103129.34;;;12.57;47.65
7264;BME280;3673;52.480;13.348;2023-02-14T13:23:21;103131.38;;;12.99;46.24
7264;BME280;3673;52.480;13.348;2023-02-14T13:25:56;103122.94;;;12.79;46.72
7264;BME280;3673;52.480;13.348;2023-02-14T13:28:26;103136.06;;;12.79;46.73
7264;BME280;3673;52.480;13.348;2023-02-14T13:30:55;103128.84;;;12.41;47.43
7264;BME280;3673;52.480;13.348;2023-02-14T13:33:28;103116.63;;;12.43;47.46